Аэропорт: Угольный. Анадырь

ICAO: UHMA

METAR:
2020-08-12 06:00:00
UHMA 120600Z 13005MPS CAVOK 17/10 Q1009 R01/60D NOSIG RMK TDZ R01/13005G08MPS END R01/11007G10MPS QFE753/1004
METAR:
2020-08-12 04:40:00
TAF UHMA 120440Z 1206/1306 18005MPS 9999 SCT033 TEMPO 1206/1306 12008G13MPS 5000 BR SCT007 BKN015CB